createdAt,value
2019-04-20T00:01:58.147Z,101385.87
2019-04-20T00:04:33.438Z,101383.92
2019-04-20T00:07:01.828Z,101385.33
2019-04-20T00:09:36.578Z,101387.45
2019-04-20T00:12:15.061Z,101379.45
2019-04-20T00:14:39.219Z,101383.39
2019-04-20T00:17:11.633Z,101374.42
2019-04-20T00:19:47.574Z,101368.42
2019-04-20T00:22:23.314Z,101375.02
2019-04-20T00:25:15.106Z,101372.75
2019-04-20T00:28:19.834Z,101379.73
2019-04-20T00:30:53.366Z,101380.97
2019-04-20T00:33:25.554Z,101390.15
2019-04-20T00:35:42.072Z,101389.70
2019-04-20T00:38:13.998Z,101396.04
2019-04-20T00:40:45.518Z,101410.14
2019-04-20T00:43:20.981Z,101402.23
2019-04-20T00:45:53.755Z,101393.66
2019-04-20T00:48:35.311Z,101402.34
2019-04-20T00:51:12.286Z,101413.05
2019-04-20T00:53:33.332Z,101431.36
2019-04-20T00:55:59.175Z,101427.84
2019-04-20T00:58:46.667Z,101436.04
2019-04-20T01:01:24.881Z,101459.57
2019-04-20T01:03:50.899Z,101476.22
2019-04-20T01:06:41.222Z,101450.45
2019-04-20T01:09:08.214Z,101429.66
2019-04-20T01:11:42.244Z,101405.17
2019-04-20T01:14:14.234Z,101378.19
2019-04-20T01:16:51.284Z,101360.13
2019-04-20T01:19:19.310Z,101353.14
2019-04-20T01:21:57.952Z,101336.47
2019-04-20T01:24:29.694Z,101323.95
2019-04-20T01:26:58.853Z,101320.73
2019-04-20T01:29:36.864Z,101315.28
2019-04-20T01:32:10.428Z,101316.05
2019-04-20T01:34:47.645Z,101311.77
2019-04-20T01:37:23.128Z,101308.81
2019-04-20T01:39:45.161Z,101318.05
2019-04-20T01:42:13.094Z,101323.23
2019-04-20T01:44:48.593Z,101326.16
2019-04-20T01:47:17.594Z,101327.06
2019-04-20T01:49:54.722Z,101324.47
2019-04-20T01:52:27.030Z,101307.28
2019-04-20T01:55:28.962Z,101315.03
2019-04-20T01:58:07.993Z,101307.45
2019-04-20T02:00:40.094Z,101314.84
2019-04-20T02:03:42.900Z,101296.72
2019-04-20T02:06:13.736Z,101295.59
2019-04-20T02:08:42.184Z,101290.74
2019-04-20T02:11:18.727Z,101288.04
2019-04-20T02:13:52.591Z,101289.02
2019-04-20T02:16:27.558Z,101296.30
2019-04-20T02:19:06.650Z,101291.02
2019-04-20T02:21:45.314Z,101292.31
2019-04-20T02:24:04.006Z,101285.03
2019-04-20T02:26:32.404Z,101289.40
2019-04-20T02:29:27.656Z,101296.19
2019-04-20T02:34:47.811Z,101305.84
2019-04-20T02:40:13.085Z,101296.19
2019-04-20T02:45:24.159Z,101294.52
2019-04-20T02:50:20.659Z,101288.88
2019-04-20T02:53:05.811Z,101299.78
2019-04-20T02:55:31.362Z,101293.23
2019-04-20T03:00:31.354Z,101295.78
2019-04-20T03:02:48.705Z,101292.92
2019-04-20T03:05:25.262Z,101296.80
2019-04-20T03:08:02.558Z,101294.22
2019-04-20T03:10:50.650Z,101293.83
2019-04-20T03:13:14.390Z,101288.13
2019-04-20T03:15:53.532Z,101295.51
2019-04-20T03:18:19.501Z,101292.44
2019-04-20T03:21:04.539Z,101297.90
2019-04-20T03:26:15.070Z,101302.59
2019-04-20T03:28:56.787Z,101305.18
2019-04-20T03:31:54.343Z,101303.45
2019-04-20T03:36:47.196Z,101312.02
2019-04-20T03:39:13.606Z,101310.23
2019-04-20T03:41:35.229Z,101307.27
2019-04-20T03:44:06.640Z,101310.56
2019-04-20T03:46:41.955Z,101308.23
2019-04-20T03:49:27.835Z,101315.23
2019-04-20T03:52:03.682Z,101314.52
2019-04-20T03:54:40.811Z,101319.59
2019-04-20T03:57:35.732Z,101320.20
2019-04-20T04:00:24.887Z,101318.48
2019-04-20T04:05:40.768Z,101322.97
2019-04-20T04:08:09.178Z,101330.49
2019-04-20T04:10:50.321Z,101334.98
2019-04-20T04:13:12.717Z,101337.20
2019-04-20T04:15:53.276Z,101339.64
2019-04-20T04:18:26.196Z,101342.29
2019-04-20T04:20:59.043Z,101347.09
2019-04-20T04:23:40.982Z,101344.08
2019-04-20T04:26:17.636Z,101343.48
2019-04-20T04:28:44.812Z,101341.05
2019-04-20T04:31:39.084Z,101343.09
2019-04-20T04:36:20.821Z,101344.66
2019-04-20T04:39:08.720Z,101344.66
2019-04-20T04:41:31.101Z,101345.67
2019-04-20T04:44:04.780Z,101345.33
2019-04-20T04:46:18.670Z,101335.23
2019-04-20T04:48:52.752Z,101337.85
2019-04-20T04:51:27.861Z,101328.70
2019-04-20T04:54:01.818Z,101335.68
2019-04-20T04:56:28.671Z,101334.95
2019-04-20T04:59:00.262Z,101338.37
2019-04-20T05:01:33.727Z,101339.60
2019-04-20T05:06:53.696Z,101339.94
2019-04-20T05:09:12.537Z,101334.19
2019-04-20T05:11:44.756Z,101340.80
2019-04-20T05:14:23.565Z,101335.33
2019-04-20T05:17:04.253Z,101345.50
2019-04-20T05:19:42.909Z,101342.95
2019-04-20T05:22:22.527Z,101340.94
2019-04-20T05:25:03.483Z,101349.33
2019-04-20T05:27:46.583Z,101353.46
2019-04-20T05:30:01.565Z,101357.81
2019-04-20T05:32:42.811Z,101355.78
2019-04-20T05:35:27.172Z,101358.97
2019-04-20T05:40:35.336Z,101358.82
2019-04-20T05:43:17.951Z,101354.69
2019-04-20T05:45:45.328Z,101353.78
2019-04-20T05:48:16.395Z,101358.47
2019-04-20T05:50:54.946Z,101358.50
2019-04-20T05:53:32.636Z,101358.75
2019-04-20T05:55:59.666Z,101358.69
2019-04-20T05:58:33.055Z,101356.25
2019-04-20T06:01:08.447Z,101350.99
2019-04-20T06:03:38.196Z,101355.77
2019-04-20T06:06:08.387Z,101359.31
2019-04-20T06:11:22.095Z,101351.38
2019-04-20T06:14:03.162Z,101347.02
2019-04-20T06:17:19.980Z,101354.37
2019-04-20T06:19:54.701Z,101362.63
2019-04-20T06:22:35.223Z,101365.09
2019-04-20T06:25:23.672Z,101360.44
2019-04-20T06:32:05.072Z,101355.28
2019-04-20T06:35:16.662Z,101356.99
2019-04-20T06:42:02.302Z,101349.08
2019-04-20T06:55:34.425Z,101356.56
2019-04-20T06:58:36.512Z,101354.51
2019-04-20T07:01:15.665Z,101355.85
2019-04-20T07:11:11.192Z,101363.91
2019-04-20T07:21:15.313Z,101361.70
2019-04-20T07:23:50.787Z,101359.80
2019-04-20T07:26:22.252Z,101376.56
2019-04-20T07:28:54.430Z,101377.52
2019-04-20T07:31:18.403Z,101372.75
2019-04-20T07:33:56.825Z,101372.44
2019-04-20T07:36:32.407Z,101384.62
2019-04-20T07:39:04.231Z,101387.09
2019-04-20T07:41:42.970Z,101369.04
2019-04-20T07:44:29.276Z,101385.55
2019-04-20T07:46:47.077Z,101407.00
2019-04-20T07:49:11.624Z,101394.98
2019-04-20T07:51:28.248Z,101393.15
2019-04-20T07:54:24.596Z,101379.11
2019-04-20T07:56:47.613Z,101392.14
2019-04-20T07:59:14.293Z,101404.42
2019-04-20T08:02:13.813Z,101403.96
2019-04-20T08:04:56.347Z,101414.77
2019-04-20T08:07:14.004Z,101398.20
2019-04-20T08:09:51.319Z,101402.16
2019-04-20T08:13:09.408Z,101392.96
2019-04-20T08:15:43.074Z,101398.30
2019-04-20T08:18:06.393Z,101422.16
2019-04-20T08:20:42.884Z,101402.87
2019-04-20T08:23:12.890Z,101399.64
2019-04-20T08:25:38.819Z,101391.29
2019-04-20T08:28:24.231Z,101388.22
2019-04-20T08:31:18.203Z,101401.34
2019-04-20T08:34:07.760Z,101401.94
2019-04-20T08:36:33.509Z,101408.42
2019-04-20T08:41:39.689Z,101395.68
2019-04-20T08:44:33.986Z,101402.84
2019-04-20T08:46:53.684Z,101410.35
2019-04-20T08:49:22.155Z,101409.48
2019-04-20T08:51:59.952Z,101411.60
2019-04-20T08:54:19.255Z,101424.02
2019-04-20T08:56:43.445Z,101405.25
2019-04-20T08:59:07.298Z,101408.89
2019-04-20T09:01:40.902Z,101413.56
2019-04-20T09:04:20.190Z,101415.36
2019-04-20T09:06:58.457Z,101405.70
2019-04-20T09:09:53.822Z,101408.91
2019-04-20T09:12:13.757Z,101426.66
2019-04-20T09:14:28.237Z,101411.84
2019-04-20T09:17:08.035Z,101401.73
2019-04-20T09:19:47.570Z,101403.20
2019-04-20T09:22:34.276Z,101419.17
2019-04-20T09:25:37.637Z,101405.40
2019-04-20T09:27:40.748Z,101403.57
2019-04-20T09:30:18.801Z,101396.26
2019-04-20T09:33:08.076Z,101403.25
2019-04-20T09:35:38.689Z,101411.29
2019-04-20T09:38:11.807Z,101409.89
2019-04-20T09:40:50.771Z,101389.76
2019-04-20T09:43:11.247Z,101386.77
2019-04-20T09:45:50.440Z,101402.70
2019-04-20T09:48:32.017Z,101401.64
2019-04-20T09:51:16.853Z,101408.48
2019-04-20T09:53:41.469Z,101397.16
2019-04-20T09:56:19.838Z,101398.13
2019-04-20T09:59:01.384Z,101401.70
2019-04-20T10:01:25.732Z,101432.52
2019-04-20T10:03:47.099Z,101409.11
2019-04-20T10:06:23.062Z,101417.72
2019-04-20T10:08:54.393Z,101404.11
2019-04-20T10:11:23.615Z,101407.09
2019-04-20T10:13:54.519Z,101400.47
2019-04-20T10:16:26.575Z,101420.11
2019-04-20T10:18:58.689Z,101419.66
2019-04-20T10:21:29.993Z,101396.72
2019-04-20T10:24:01.209Z,101389.20
2019-04-20T10:26:32.403Z,101381.69
2019-04-20T10:29:05.695Z,101399.23
2019-04-20T10:31:42.570Z,101390.16
2019-04-20T10:34:09.489Z,101398.52
2019-04-20T10:37:01.672Z,101405.45
2019-04-20T10:39:34.257Z,101404.61
2019-04-20T10:42:06.380Z,101398.42
2019-04-20T10:44:38.674Z,101403.83
2019-04-20T10:47:09.175Z,101402.16
2019-04-20T10:49:40.891Z,101425.31
2019-04-20T10:52:11.726Z,101415.83
2019-04-20T10:54:42.722Z,101416.40
2019-04-20T10:57:13.769Z,101417.72
2019-04-20T10:59:45.703Z,101416.42
2019-04-20T11:02:19.398Z,101411.12
2019-04-20T11:04:50.660Z,101430.44
2019-04-20T11:07:23.302Z,101417.87
2019-04-20T11:10:04.378Z,101426.34
2019-04-20T11:12:28.340Z,101413.70
2019-04-20T11:15:00.628Z,101430.63
2019-04-20T11:17:33.363Z,101439.08
2019-04-20T11:20:05.413Z,101418.62
2019-04-20T11:22:38.142Z,101423.13
2019-04-20T11:25:10.248Z,101421.45
2019-04-20T11:27:41.626Z,101431.78
2019-04-20T11:30:14.112Z,101428.31
2019-04-20T11:32:44.815Z,101443.57
2019-04-20T11:35:24.091Z,101445.55
2019-04-20T11:37:49.401Z,101443.19
2019-04-20T11:40:21.599Z,101444.77
2019-04-20T11:42:53.744Z,101438.77
2019-04-20T11:45:24.971Z,101448.65
2019-04-20T11:47:55.858Z,101449.48
2019-04-20T11:50:31.617Z,101444.70
2019-04-20T11:53:03.516Z,101440.19
2019-04-20T11:55:34.530Z,101447.14
2019-04-20T11:58:05.871Z,101439.66
2019-04-20T12:00:55.301Z,101437.40
2019-04-20T12:03:28.240Z,101442.91
2019-04-20T12:05:57.854Z,101449.19
2019-04-20T12:08:27.292Z,101441.52
2019-04-20T12:11:01.797Z,101444.04
2019-04-20T12:13:31.107Z,101445.73
2019-04-20T12:16:03.443Z,101431.56
2019-04-20T12:18:35.820Z,101439.27
2019-04-20T12:21:08.448Z,101453.31
2019-04-20T12:23:40.353Z,101450.56
2019-04-20T12:26:13.024Z,101448.02
2019-04-20T12:28:43.828Z,101444.09
2019-04-20T12:31:20.310Z,101436.72
2019-04-20T12:33:48.413Z,101442.14
2019-04-20T12:36:20.537Z,101440.00
2019-04-20T12:38:52.913Z,101433.83
2019-04-20T12:41:39.068Z,101430.05
2019-04-20T12:43:59.536Z,101439.25
2019-04-20T12:46:31.935Z,101428.95
2019-04-20T12:49:02.812Z,101428.97
2019-04-20T12:51:39.937Z,101442.81
2019-04-20T12:54:06.699Z,101430.56
2019-04-20T12:56:40.382Z,101417.68
2019-04-20T12:59:11.652Z,101424.80
2019-04-20T13:01:43.609Z,101432.97
2019-04-20T13:04:16.186Z,101432.42
2019-04-20T13:06:52.415Z,101431.38
2019-04-20T13:09:22.936Z,101425.20
2019-04-20T13:12:12.015Z,101424.46
2019-04-20T13:15:34.291Z,101422.47
2019-04-20T13:18:05.603Z,101440.94
2019-04-20T13:20:36.596Z,101435.38
2019-04-20T13:23:08.052Z,101439.16
2019-04-20T13:25:41.216Z,101447.69
2019-04-20T13:28:12.823Z,101442.20
2019-04-20T13:30:44.079Z,101449.57
2019-04-20T13:33:15.268Z,101445.48
2019-04-20T13:35:46.183Z,101448.30
2019-04-20T13:38:18.730Z,101445.09
2019-04-20T13:40:49.539Z,101448.19
2019-04-20T13:43:20.138Z,101442.05
2019-04-20T13:45:51.005Z,101437.31
2019-04-20T13:48:21.854Z,101441.31
2019-04-20T13:50:56.045Z,101439.42
2019-04-20T13:53:27.484Z,101444.06
2019-04-20T13:55:59.243Z,101444.94
2019-04-20T13:58:47.849Z,101444.11
2019-04-20T14:01:34.850Z,101456.06
2019-04-20T14:04:30.822Z,101450.95
2019-04-20T14:07:03.383Z,101452.63
2019-04-20T14:09:35.411Z,101463.13
2019-04-20T14:12:17.350Z,101467.97
2019-04-20T14:14:39.571Z,101463.78
2019-04-20T14:17:10.825Z,101459.25
2019-04-20T14:19:43.147Z,101459.89
2019-04-20T14:22:15.245Z,101462.62
2019-04-20T14:24:48.966Z,101459.09
2019-04-20T14:27:21.270Z,101475.59
2019-04-20T14:29:52.963Z,101473.87
2019-04-20T14:32:24.982Z,101467.34
2019-04-20T14:34:56.910Z,101463.63
2019-04-20T14:37:47.864Z,101466.58
2019-04-20T14:40:18.989Z,101466.25
2019-04-20T14:42:53.352Z,101465.34
2019-04-20T14:45:24.669Z,101473.27
2019-04-20T14:47:55.895Z,101475.58
2019-04-20T14:50:27.675Z,101475.75
2019-04-20T14:52:59.762Z,101473.70
2019-04-20T14:55:31.375Z,101474.05
2019-04-20T14:58:07.887Z,101470.75
2019-04-20T15:00:56.951Z,101471.04
2019-04-20T15:03:38.324Z,101472.00
2019-04-20T15:06:09.670Z,101473.93
2019-04-20T15:08:42.776Z,101474.25
2019-04-20T15:11:14.781Z,101479.11
2019-04-20T15:13:46.860Z,101476.38
2019-04-20T15:16:18.439Z,101473.07
2019-04-20T15:19:09.600Z,101484.22
2019-04-20T15:21:45.272Z,101480.38
2019-04-20T15:24:17.788Z,101479.84
2019-04-20T15:26:48.951Z,101478.45
2019-04-20T15:29:20.312Z,101479.71
2019-04-20T15:31:52.279Z,101478.53
2019-04-20T15:34:26.757Z,101479.22
2019-04-20T15:36:58.395Z,101478.69
2019-04-20T15:39:30.464Z,101481.70
2019-04-20T15:42:01.341Z,101491.98
2019-04-20T15:44:33.427Z,101481.23
2019-04-20T15:47:05.126Z,101485.13
2019-04-20T15:49:36.237Z,101487.84
2019-04-20T15:52:08.102Z,101482.67
2019-04-20T15:54:39.575Z,101491.22
2019-04-20T15:57:16.812Z,101477.37
2019-04-20T15:59:44.458Z,101479.91
2019-04-20T16:02:31.541Z,101477.73
2019-04-20T16:05:32.962Z,101485.87
2019-04-20T16:08:28.211Z,101477.86
2019-04-20T16:11:01.400Z,101475.47
2019-04-20T16:13:38.066Z,101471.41
2019-04-20T16:16:05.959Z,101476.48
2019-04-20T16:18:40.957Z,101478.42
2019-04-20T16:21:19.564Z,101481.16
2019-04-20T16:23:50.740Z,101481.20
2019-04-20T16:26:35.739Z,101486.00
2019-04-20T16:29:08.273Z,101481.75
2019-04-20T16:31:40.533Z,101485.25
2019-04-20T16:34:13.695Z,101498.55
2019-04-20T16:36:46.257Z,101498.55
2019-04-20T16:39:20.697Z,101489.91
2019-04-20T16:41:53.893Z,101496.76
2019-04-20T16:44:25.158Z,101489.23
2019-04-20T16:46:56.422Z,101487.77
2019-04-20T16:49:28.817Z,101487.77
2019-04-20T16:52:00.801Z,101506.39
2019-04-20T16:54:32.419Z,101506.39
2019-04-20T16:57:04.583Z,101499.30
2019-04-20T16:59:43.343Z,101499.30
2019-04-20T17:02:08.650Z,101509.77
2019-04-20T17:04:40.921Z,101509.77
2019-04-20T17:07:27.139Z,101502.94
2019-04-20T17:09:59.995Z,101508.66
2019-04-20T17:12:31.200Z,101508.85
2019-04-20T17:15:03.581Z,101507.33
2019-04-20T17:17:35.975Z,101507.33
2019-04-20T17:20:09.195Z,101507.38
2019-04-20T17:22:41.998Z,101516.62
2019-04-20T17:25:16.341Z,101516.62
2019-04-20T17:28:08.768Z,101526.84
2019-04-20T17:30:59.227Z,101520.61
2019-04-20T17:33:50.612Z,101524.06
2019-04-20T17:36:19.743Z,101524.06
2019-04-20T17:38:52.516Z,101534.04
2019-04-20T17:41:42.968Z,101534.48
2019-04-20T17:44:09.962Z,101534.16
2019-04-20T17:46:37.139Z,101532.19
2019-04-20T17:49:09.632Z,101530.33
2019-04-20T17:51:54.798Z,101530.89
2019-04-20T17:54:22.396Z,101534.31
2019-04-20T17:56:56.218Z,101541.41
2019-04-20T17:59:30.380Z,101544.21
2019-04-20T18:02:36.748Z,101540.38
2019-04-20T18:05:22.900Z,101537.66
2019-04-20T18:07:53.509Z,101536.77
2019-04-20T18:10:25.789Z,101537.53
2019-04-20T18:12:46.237Z,101540.11
2019-04-20T18:15:36.939Z,101535.73
2019-04-20T18:18:28.453Z,101530.95
2019-04-20T18:21:08.744Z,101533.08
2019-04-20T18:23:43.460Z,101535.35
2019-04-20T18:26:35.851Z,101529.17
2019-04-20T18:29:22.726Z,101536.15
2019-04-20T18:31:53.663Z,101539.25
2019-04-20T18:34:36.528Z,101537.03
2019-04-20T18:37:12.013Z,101536.89
2019-04-20T18:39:50.552Z,101540.31
2019-04-20T18:42:23.718Z,101536.41
2019-04-20T18:45:00.973Z,101535.73
2019-04-20T18:47:42.182Z,101538.22
2019-04-20T18:50:05.483Z,101536.30
2019-04-20T18:52:25.548Z,101532.69
2019-04-20T18:54:57.553Z,101530.52
2019-04-20T18:57:31.168Z,101527.63
2019-04-20T19:00:02.823Z,101524.34
2019-04-20T19:02:40.949Z,101523.09
2019-04-20T19:05:09.745Z,101523.92
2019-04-20T19:07:51.527Z,101521.56
2019-04-20T19:10:22.987Z,101523.73
2019-04-20T19:12:58.835Z,101524.53
2019-04-20T19:15:50.880Z,101525.41
2019-04-20T19:18:45.316Z,101512.91
2019-04-20T19:21:06.771Z,101513.64
2019-04-20T19:23:47.609Z,101514.14
2019-04-20T19:26:17.234Z,101508.92
2019-04-20T19:28:49.542Z,101507.70
2019-04-20T19:31:35.211Z,101510.89
2019-04-20T19:34:16.900Z,101510.53
2019-04-20T19:36:31.680Z,101507.49
2019-04-20T19:39:11.075Z,101501.14
2019-04-20T19:41:38.947Z,101501.55
2019-04-20T19:44:13.499Z,101501.61
2019-04-20T19:46:53.743Z,101500.64
2019-04-20T19:49:19.770Z,101505.09
2019-04-20T19:52:13.231Z,101504.59
2019-04-20T19:54:38.622Z,101500.31
2019-04-20T19:57:01.293Z,101498.90
2019-04-20T19:59:26.327Z,101501.49
2019-04-20T20:01:51.644Z,101494.08
2019-04-20T20:04:23.816Z,101498.40
2019-04-20T20:07:01.860Z,101490.30
2019-04-20T20:09:28.035Z,101488.06
2019-04-20T20:12:04.904Z,101484.61
2019-04-20T20:14:37.454Z,101482.86
2019-04-20T20:17:26.956Z,101483.19
2019-04-20T20:20:06.974Z,101482.63
2019-04-20T20:22:21.553Z,101480.59
2019-04-20T20:24:45.113Z,101480.59
2019-04-20T20:27:25.826Z,101482.06
2019-04-20T20:30:00.883Z,101479.58
2019-04-20T20:32:41.879Z,101476.75
2019-04-20T20:35:05.547Z,101478.11
2019-04-20T20:37:39.147Z,101480.41
2019-04-20T20:40:15.797Z,101478.22
2019-04-20T20:42:53.082Z,101477.67
2019-04-20T20:45:22.691Z,101469.39
2019-04-20T20:48:06.167Z,101476.30
2019-04-20T20:50:37.465Z,101472.95
2019-04-20T20:53:03.545Z,101466.22
2019-04-20T20:55:30.883Z,101471.41
2019-04-20T20:58:01.735Z,101465.89
2019-04-20T21:00:38.807Z,101476.66
2019-04-20T21:03:03.879Z,101475.37
2019-04-20T21:05:31.588Z,101473.32
2019-04-20T21:08:03.697Z,101467.08
2019-04-20T21:10:41.010Z,101466.16
2019-04-20T21:13:10.308Z,101467.58
2019-04-20T21:15:45.346Z,101467.13
2019-04-20T21:18:33.715Z,101464.78
2019-04-20T21:21:04.610Z,101462.20
2019-04-20T21:23:33.865Z,101461.52
2019-04-20T21:26:22.842Z,101458.37
2019-04-20T21:28:42.242Z,101458.91
2019-04-20T21:31:18.816Z,101459.05
2019-04-20T21:33:45.308Z,101449.19
2019-04-20T21:36:19.191Z,101444.77
2019-04-20T21:38:50.060Z,101446.01
2019-04-20T21:41:23.890Z,101448.16
2019-04-20T21:43:54.004Z,101441.48
2019-04-20T21:46:24.955Z,101445.44
2019-04-20T21:49:09.744Z,101435.41
2019-04-20T21:51:39.778Z,101437.64
2019-04-20T21:54:02.894Z,101438.12
2019-04-20T21:56:38.339Z,101434.78
2019-04-20T21:59:14.342Z,101436.52
2019-04-20T22:01:41.212Z,101431.83
2019-04-20T22:04:12.224Z,101429.23
2019-04-20T22:06:44.569Z,101425.90
2019-04-20T22:09:16.243Z,101419.52
2019-04-20T22:11:47.546Z,101423.41
2019-04-20T22:14:22.146Z,101425.40
2019-04-20T22:16:53.853Z,101421.50
2019-04-20T22:19:34.196Z,101423.97
2019-04-20T22:22:06.495Z,101417.04
2019-04-20T22:24:42.480Z,101416.86
2019-04-20T22:27:09.929Z,101418.84
2019-04-20T22:29:34.360Z,101414.38
2019-04-20T22:32:11.498Z,101416.47
2019-04-20T22:34:39.783Z,101414.79
2019-04-20T22:37:15.256Z,101413.81
2019-04-20T22:39:54.018Z,101411.28
2019-04-20T22:42:22.273Z,101405.52
2019-04-20T22:45:01.272Z,101401.12
2019-04-20T22:47:29.331Z,101402.28
2019-04-20T22:50:16.507Z,101407.67
2019-04-20T22:52:47.833Z,101401.77
2019-04-20T22:55:28.267Z,101400.97
2019-04-20T22:57:51.851Z,101398.56
2019-04-20T23:00:16.653Z,101393.45
2019-04-20T23:02:44.873Z,101389.50
2019-04-20T23:05:15.592Z,101391.91
2019-04-20T23:07:46.687Z,101388.06
2019-04-20T23:10:25.382Z,101390.11
2019-04-20T23:12:54.252Z,101390.98
2019-04-20T23:15:22.696Z,101393.26
2019-04-20T23:17:53.942Z,101391.10
2019-04-20T23:20:31.794Z,101389.00
2019-04-20T23:22:58.829Z,101386.96
2019-04-20T23:25:31.199Z,101382.98
2019-04-20T23:28:07.684Z,101383.87
2019-04-20T23:30:39.427Z,101379.48
2019-04-20T23:33:08.127Z,101380.34
2019-04-20T23:35:43.778Z,101374.04
2019-04-20T23:38:17.570Z,101379.65
2019-04-20T23:40:43.948Z,101368.70
2019-04-20T23:43:25.473Z,101373.59
2019-04-20T23:46:19.375Z,101373.27
2019-04-20T23:49:01.875Z,101368.41
2019-04-20T23:51:54.263Z,101367.72
2019-04-20T23:54:13.665Z,101362.03
2019-04-20T23:56:39.895Z,101363.27
2019-04-20T23:59:12.775Z,101363.33
